Time;durP1;ratioP1;P1;durP2;ratioP2;P2;SDS_P1;SDS_P2;PMS_P1;PMS_P2;Temp;Humidity;BMP_temperature;BMP_pressure;BME280_temperature;BME280_humidity;BME280_pressure;Samples;Min_cycle;Max_cycle;Signal;HPM_P1;HPM_P2
2024/02/08 00:01:28;;;;;;;7.90;6.35;;;;;;;3.68;100.00;96531.94;1225817;75;2921387;-62
2024/02/08 00:04:00;;;;;;;7.05;5.95;;;;;;;3.76;100.00;96526.94;1224991;75;2921964;-61
2024/02/08 00:06:33;;;;;;;6.80;5.60;;;;;;;3.72;100.00;96529.81;1225147;75;2921646;-64
2024/02/08 00:09:07;;;;;;;8.65;6.40;;;;;;;3.77;100.00;96536.56;1225510;75;2923086;-59
2024/02/08 00:11:41;;;;;;;10.60;7.55;;;;;;;3.54;100.00;96546.88;1224640;75;2918648;-66
2024/02/08 00:14:16;;;;;;;10.60;8.40;;;;;;;3.55;100.00;96551.06;1225660;75;2904419;-64
2024/02/08 00:16:49;;;;;;;10.40;8.20;;;;;;;3.64;100.00;96553.00;1224759;75;2917718;-62
2024/02/08 00:19:22;;;;;;;10.50;8.10;;;;;;;3.60;100.00;96547.75;1225228;75;2917232;-63
2024/02/08 00:21:56;;;;;;;9.75;7.65;;;;;;;3.54;100.00;96543.41;1225039;75;2919029;-64
2024/02/08 00:24:30;;;;;;;7.30;6.35;;;;;;;3.75;100.00;96541.69;1224913;75;2914532;-63
2024/02/08 00:27:03;;;;;;;10.65;5.70;;;;;;;3.84;100.00;96539.69;1225629;75;2908649;-64
2024/02/08 00:29:43;;;;;;;7.20;5.75;;;;;;;3.77;100.00;96544.69;1225389;75;2918098;-64
2024/02/08 00:32:16;;;;;;;8.15;5.90;;;;;;;3.86;100.00;96541.94;1225358;75;2915793;-64
2024/02/08 00:34:49;;;;;;;10.90;7.90;;;;;;;3.63;100.00;96546.06;1225862;75;2911385;-62
2024/02/08 00:37:21;;;;;;;11.65;8.75;;;;;;;3.76;100.00;96540.47;1225077;75;2915021;-63
2024/02/08 00:39:54;;;;;;;8.65;7.05;;;;;;;3.80;100.00;96547.25;1225187;75;2918270;-61
2024/02/08 00:42:27;;;;;;;8.00;6.20;;;;;;;3.69;100.00;96544.25;1224923;75;2915163;-64
2024/02/08 00:45:03;;;;;;;7.45;6.15;;;;;;;3.65;100.00;96538.25;1225038;75;2921430;-61
2024/02/08 00:47:35;;;;;;;9.80;7.70;;;;;;;3.54;100.00;96544.16;1225497;75;2914376;-63
2024/02/08 00:50:10;;;;;;;9.85;8.30;;;;;;;3.38;100.00;96537.13;1225251;75;2915604;-62
2024/02/08 00:52:42;;;;;;;11.60;8.95;;;;;;;3.56;100.00;96547.16;1225150;75;2928373;-63
2024/02/08 00:55:16;;;;;;;11.80;8.10;;;;;;;3.66;100.00;96541.72;1225820;75;2922445;-61
2024/02/08 00:57:49;;;;;;;8.60;6.40;;;;;;;3.66;100.00;96547.16;1225362;75;2919089;-64
2024/02/08 01:00:25;;;;;;;10.30;7.70;;;;;;;3.43;100.00;96530.34;1224871;75;2920904;-62
2024/02/08 01:02:59;;;;;;;9.80;8.20;;;;;;;3.51;100.00;96522.66;1225260;75;2920392;-60
2024/02/08 01:05:32;;;;;;;10.95;8.55;;;;;;;3.35;100.00;96538.06;1225232;75;2916308;-63
2024/02/08 01:08:05;;;;;;;11.50;9.10;;;;;;;3.40;100.00;96537.44;1225536;75;2914174;-62
2024/02/08 01:10:38;;;;;;;14.85;11.70;;;;;;;3.12;100.00;96538.69;1225342;75;2917355;-61
2024/02/08 01:13:11;;;;;;;11.55;9.35;;;;;;;3.47;100.00;96530.97;1223789;75;2921083;-61
2024/02/08 01:15:49;;;;;;;10.25;7.85;;;;;;;3.55;100.00;96529.41;1224870;75;2918476;-59
2024/02/08 01:18:22;;;;;;;8.30;6.60;;;;;;;3.63;100.00;96530.59;1225960;75;2915983;-63
2024/02/08 01:20:55;;;;;;;11.25;8.30;;;;;;;3.41;100.00;96522.69;1225690;75;2913123;-62
2024/02/08 01:23:28;;;;;;;8.55;6.70;;;;;;;3.53;100.00;96529.13;1225314;75;2919410;-61
2024/02/08 01:26:03;;;;;;;8.40;7.30;;;;;;;3.44;100.00;96523.75;1225067;75;2919567;-63
2024/02/08 01:28:35;;;;;;;10.35;7.65;;;;;;;3.55;100.00;96524.00;1222742;75;2932694;-60
2024/02/08 01:31:11;;;;;;;8.75;6.70;;;;;;;3.64;100.00;96520.53;1225375;75;2918189;-60
2024/02/08 01:33:44;;;;;;;9.20;6.95;;;;;;;3.66;100.00;96520.81;1226171;75;2918177;-61
2024/02/08 01:36:17;;;;;;;8.50;6.70;;;;;;;3.61;100.00;96516.03;1225215;75;2919139;-64
2024/02/08 01:38:51;;;;;;;9.20;6.90;;;;;;;3.66;100.00;96520.09;1224908;75;2922923;-68
2024/02/08 01:41:24;;;;;;;8.30;6.50;;;;;;;3.76;100.00;96506.03;1225607;75;2920230;-65
2024/02/08 01:44:02;;;;;;;7.90;6.40;;;;;;;3.76;100.00;96505.28;1225912;75;2915881;-65
2024/02/08 01:46:40;;;;;;;8.30;6.90;;;;;;;3.59;100.00;96494.09;1225976;75;2913650;-62
2024/02/08 01:49:20;;;;;;;8.70;6.90;;;;;;;3.73;100.00;96487.25;1225882;75;2917828;-64
2024/02/08 01:51:59;;;;;;;8.30;6.40;;;;;;;3.83;100.00;96494.88;1225595;75;2922402;-61
2024/02/08 01:54:33;;;;;;;7.60;6.00;;;;;;;3.73;100.00;96487.25;1224790;75;2917640;-59
2024/02/08 01:57:08;;;;;;;8.20;6.40;;;;;;;3.69;100.00;96483.97;1225120;75;2916897;-62
2024/02/08 01:59:41;;;;;;;7.15;5.90;;;;;;;3.70;100.00;96486.22;1224897;75;2902560;-64
2024/02/08 02:02:21;;;;;;;10.95;7.90;;;;;;;3.63;100.00;96490.00;1225796;75;2911732;-62
2024/02/08 02:04:55;;;;;;;7.95;6.65;;;;;;;3.87;100.00;96492.00;1225089;83;2922020;-62
2024/02/08 02:07:28;;;;;;;9.60;7.35;;;;;;;3.70;100.00;96485.47;1225583;75;2923745;-63
2024/02/08 02:10:01;;;;;;;12.70;9.40;;;;;;;3.40;100.00;96490.69;1224324;75;2920956;-61
2024/02/08 02:12:34;;;;;;;15.90;12.45;;;;;;;3.38;100.00;96482.28;1224540;75;2928371;-64
2024/02/08 02:15:10;;;;;;;13.10;11.35;;;;;;;3.54;100.00;96479.22;1225714;75;2911021;-62
2024/02/08 02:17:50;;;;;;;10.95;9.05;;;;;;;3.76;100.00;96470.13;1224726;75;2915327;-63
2024/02/08 02:20:24;;;;;;;11.50;9.55;;;;;;;3.61;100.00;96475.44;1225236;75;2920247;-63
2024/02/08 02:23:01;;;;;;;10.45;8.05;;;;;;;3.78;100.00;96481.22;1224990;75;2927782;-61
2024/02/08 02:25:35;;;;;;;8.05;6.75;;;;;;;3.97;100.00;96479.16;1224896;75;2919545;-63
2024/02/08 02:28:10;;;;;;;8.35;6.75;;;;;;;3.63;100.00;96473.00;1225330;75;2915428;-63
2024/02/08 02:30:44;;;;;;;9.60;7.75;;;;;;;3.88;100.00;96482.69;1224612;75;2933920;-64
2024/02/08 02:33:19;;;;;;;8.50;7.25;;;;;;;3.67;100.00;96475.56;1224622;75;2916808;-61
2024/02/08 02:35:52;;;;;;;8.55;6.55;;;;;;;3.97;100.00;96481.84;1224934;75;2918464;-62
2024/02/08 02:38:28;;;;;;;7.35;6.25;;;;;;;3.98;100.00;96472.53;1225145;75;2914925;-60
2024/02/08 02:41:06;;;;;;;10.65;8.20;;;;;;;3.62;100.00;96474.22;1224334;75;2924711;-61
2024/02/08 02:43:41;;;;;;;10.20;7.10;;;;;;;3.88;100.00;96471.84;1223772;75;2924947;-66
2024/02/08 02:46:18;;;;;;;7.50;6.10;;;;;;;3.71;100.00;96482.31;1224978;75;2924210;-64
2024/02/08 02:48:51;;;;;;;8.70;7.55;;;;;;;3.83;100.00;96481.34;1224150;75;2916152;-60
2024/02/08 02:51:26;;;;;;;7.45;6.30;;;;;;;3.93;100.00;96484.00;1223824;75;2924303;-62
2024/02/08 02:54:01;;;;;;;7.20;5.55;;;;;;;4.00;100.00;96486.38;1224293;75;2918778;-63
2024/02/08 02:56:35;;;;;;;6.85;5.65;;;;;;;3.87;100.00;96492.00;1223670;75;2919428;-64
2024/02/08 02:59:07;;;;;;;7.05;5.60;;;;;;;3.80;100.00;96495.81;1225063;75;2915804;-61
2024/02/08 03:01:42;;;;;;;9.20;6.25;;;;;;;3.89;100.00;96499.66;1223927;75;2928977;-60
2024/02/08 03:04:15;;;;;;;7.55;6.45;;;;;;;3.89;100.00;96497.69;1224625;75;2924464;-63
2024/02/08 03:06:52;;;;;;;7.15;5.55;;;;;;;3.83;100.00;96502.25;1224449;75;2922488;-63
2024/02/08 03:09:30;;;;;;;5.55;4.35;;;;;;;3.92;100.00;96499.50;1225357;75;2919532;-61
2024/02/08 03:12:03;;;;;;;6.25;5.15;;;;;;;3.90;100.00;96493.06;1224541;75;2915777;-60
2024/02/08 03:14:36;;;;;;;5.80;4.80;;;;;;;3.93;100.00;96487.47;1224866;75;2920455;-62
2024/02/08 03:17:12;;;;;;;6.25;5.00;;;;;;;3.71;100.00;96495.09;1225049;75;2915065;-60
2024/02/08 03:19:45;;;;;;;6.95;5.55;;;;;;;3.79;100.00;96493.53;1225197;75;2920548;-62
2024/02/08 03:22:18;;;;;;;8.10;6.35;;;;;;;3.59;100.00;96494.84;1225841;75;2920768;-63
2024/02/08 03:24:53;;;;;;;9.30;7.45;;;;;;;3.53;100.00;96488.53;1224946;75;2936874;-60
2024/02/08 03:27:26;;;;;;;8.80;7.05;;;;;;;3.76;100.00;96495.22;1225675;75;2916502;-62
2024/02/08 03:29:59;;;;;;;6.90;6.15;;;;;;;3.89;100.00;96489.56;1224352;75;2916523;-62
2024/02/08 03:32:35;;;;;;;7.15;5.50;;;;;;;3.83;100.00;96492.16;1224272;75;2926508;-63
2024/02/08 03:35:09;;;;;;;6.25;5.00;;;;;;;3.83;100.00;96502.25;1200011;75;4907569;-63
2024/02/08 03:37:48;;;;;;;5.70;4.65;;;;;;;3.96;100.00;96508.19;1224763;75;2928632;-64
2024/02/08 03:40:25;;;;;;;;;;;;;;;3.91;100.00;96514.25;1225923;75;2919839;-61
2024/02/08 03:42:58;;;;;;;7.50;5.90;;;;;;;3.87;100.00;96516.34;1224936;75;2918537;-64
2024/02/08 03:45:31;;;;;;;7.05;5.55;;;;;;;3.99;100.00;96520.84;1223973;75;2925206;-64
2024/02/08 03:48:04;;;;;;;7.25;6.15;;;;;;;3.91;100.00;96516.94;1225339;75;2915932;-63
2024/02/08 03:50:37;;;;;;;6.40;5.50;;;;;;;3.84;100.00;96520.72;1223355;75;2981212;-62
2024/02/08 03:53:12;;;;;;;8.10;5.80;;;;;;;4.04;100.00;96524.84;1224713;83;2917748;-61
2024/02/08 03:55:47;;;;;;;8.85;6.25;;;;;;;3.81;100.00;96520.91;1225034;75;2915804;-62
2024/02/08 03:58:23;;;;;;;8.20;6.55;;;;;;;3.89;100.00;96515.91;1224896;75;2940222;-60
2024/02/08 04:01:00;;;;;;;7.15;5.70;;;;;;;4.06;100.00;96503.47;1225561;75;2915826;-62
2024/02/08 04:03:53;;;;;;;7.50;5.30;;;;;;;4.01;100.00;96498.69;1224431;75;2920786;-63
2024/02/08 04:06:49;;;;;;;6.05;5.05;;;;;;;4.00;100.00;96506.06;1225409;75;2919179;-65
2024/02/08 04:09:33;;;;;;;12.80;8.75;;;;;;;3.65;100.00;96505.03;1224090;75;2923185;-63
2024/02/08 04:53:45;;;;;;;8.20;6.40;;;;;;;4.03;100.00;96499.72;1224002;75;2937835;-62
2024/02/08 04:56:18;;;;;;;6.90;5.70;;;;;;;4.08;100.00;96486.78;1224603;75;2923418;-61
2024/02/08 04:58:51;;;;;;;8.15;6.50;;;;;;;3.96;100.00;96493.91;1223697;75;2922499;-62
2024/02/08 05:01:27;;;;;;;7.50;5.45;;;;;;;4.03;100.00;96494.31;1223438;75;2917154;-62
2024/02/08 05:04:01;;;;;;;7.25;5.25;;;;;;;3.89;100.00;96497.69;1224300;75;2927640;-63
2024/02/08 05:06:35;;;;;;;8.30;6.10;;;;;;;3.92;100.00;96501.44;1224499;75;2918388;-60
2024/02/08 05:09:09;;;;;;;6.15;5.00;;;;;;;3.98;100.00;96507.75;1223705;75;2924567;-66
2024/02/08 05:11:43;;;;;;;5.40;4.45;;;;;;;3.89;100.00;96513.19;1224117;75;2920864;-61
2024/02/08 05:14:19;;;;;;;7.90;6.20;;;;;;;3.78;100.00;96514.47;1224687;75;2924509;-63
2024/02/08 05:16:55;;;;;;;10.30;7.10;;;;;;;3.57;100.00;96518.16;1223940;75;2924588;-58
2024/02/08 05:19:28;;;;;;;11.40;8.55;;;;;;;3.56;100.00;96522.81;1223380;75;2930480;-62
2024/02/08 05:22:02;;;;;;;13.25;10.00;;;;;;;3.47;100.00;96522.84;1223967;75;2929893;-62
2024/02/08 05:24:35;;;;;;;13.35;10.40;;;;;;;3.54;100.00;96519.06;1224199;75;2929785;-61
2024/02/08 05:27:08;;;;;;;11.60;9.55;;;;;;;3.71;100.00;96516.75;1224747;67;2928364;-59
2024/02/08 05:29:43;;;;;;;16.10;13.30;;;;;;;3.60;100.00;96523.38;1222335;75;2926935;-65
2024/02/08 05:32:22;;;;;;;13.60;11.80;;;;;;;3.55;100.00;96512.44;1223207;75;2927613;-62
2024/02/08 05:34:55;;;;;;;12.15;9.05;;;;;;;3.47;100.00;96520.13;1222233;75;2931562;-63
2024/02/08 05:37:29;;;;;;;15.60;11.05;;;;;;;3.16;100.00;96523.81;1223946;75;2932257;-63
2024/02/08 05:40:02;;;;;;;75.65;47.30;;;;;;;3.26;100.00;96535.34;1224167;75;2922922;-61
2024/02/08 05:42:36;;;;;;;47.35;30.65;;;;;;;3.10;100.00;96533.75;1223638;75;2922158;-65
2024/02/08 05:45:18;;;;;;;21.85;16.85;;;;;;;3.26;100.00;96527.25;1223251;75;2923620;-58
2024/02/08 05:47:55;;;;;;;17.85;13.80;;;;;;;3.30;100.00;96535.22;1222909;75;2926237;-59
2024/02/08 05:50:31;;;;;;;12.60;10.25;;;;;;;3.51;100.00;96542.38;1223653;75;2922732;-61
2024/02/08 05:53:06;;;;;;;18.60;14.50;;;;;;;3.20;100.00;96537.94;1223779;75;2935094;-60
2024/02/08 05:55:40;;;;;;;26.80;19.95;;;;;;;3.25;100.00;96544.69;1223888;75;2923436;-62
2024/02/08 05:58:16;;;;;;;18.55;14.90;;;;;;;3.43;100.00;96546.59;1221806;75;3104258;-61
2024/02/08 06:01:01;;;;;;;15.50;12.65;;;;;;;3.42;100.00;96548.56;1223730;75;2924693;-62
2024/02/08 06:03:37;;;;;;;13.15;10.35;;;;;;;3.49;100.00;96560.25;1223254;75;2936314;-61
2024/02/08 06:06:16;;;;;;;10.35;9.00;;;;;;;3.31;100.00;96558.34;1222973;75;2924968;-63
2024/02/08 06:08:56;;;;;;;9.70;7.60;;;;;;;3.39;100.00;96563.00;1223694;75;2926375;-62
2024/02/08 06:11:28;;;;;;;9.10;7.50;;;;;;;3.18;100.00;96578.19;1224144;75;2923512;-60
2024/02/08 06:14:06;;;;;;;8.60;6.15;;;;;;;3.33;100.00;96564.78;1222754;75;2923210;-61
2024/02/08 06:16:45;;;;;;;4.30;3.80;;;;;;;3.26;100.00;96572.47;1224001;75;2925385;-63
2024/02/08 06:19:21;;;;;;;7.65;5.95;;;;;;;3.24;100.00;96559.41;1224521;75;2923225;-61
2024/02/08 06:21:57;;;;;;;6.95;5.60;;;;;;;3.26;100.00;96565.09;1223623;75;2927186;-60
2024/02/08 06:24:30;;;;;;;5.90;4.70;;;;;;;3.23;100.00;96570.69;1223426;75;2923559;-63
2024/02/08 06:27:13;;;;;;;5.55;4.65;;;;;;;3.16;100.00;96563.63;1223557;67;2928330;-60
2024/02/08 06:29:46;;;;;;;5.75;4.85;;;;;;;3.26;100.00;96575.19;1223606;75;2925343;-62
2024/02/08 06:32:43;;;;;;;8.05;5.35;;;;;;;3.19;100.00;96573.53;1222832;75;2929167;-63
2024/02/08 06:35:19;;;;;;;13.10;8.50;;;;;;;2.78;100.00;96567.53;1223783;67;2937902;-63
2024/02/08 06:38:00;;;;;;;11.15;9.35;;;;;;;2.98;100.00;96577.91;1223588;75;2927144;-62
2024/02/08 06:40:50;;;;;;;10.90;7.95;;;;;;;3.24;100.00;96578.31;1224751;75;2923538;-59
2024/02/08 06:43:44;;;;;;;7.80;6.30;;;;;;;3.34;100.00;96595.28;1224347;75;2925556;-63
2024/02/08 06:46:28;;;;;;;7.70;6.00;;;;;;;3.41;100.00;96603.09;1223888;75;2925927;-62
2024/02/08 07:38:53;;;;;;;9.45;7.80;;;;;;;12.38;61.85;96625.72;1216404;75;3080302;-62
2024/02/08 07:41:29;;;;;;;8.25;6.60;;;;;;;12.78;60.33;96635.09;1218687;75;2941412;-64
2024/02/08 07:44:03;;;;;;;9.20;6.50;;;;;;;13.38;58.53;96629.41;1210366;75;3233426;-63
2024/02/08 07:46:40;;;;;;;11.15;7.50;;;;;;;11.14;63.25;96632.00;1203837;75;3539231;-60
2024/02/08 07:49:17;;;;;;;10.70;8.07;;;;;;;11.14;63.79;96635.50;1146933;75;5794136;-61
2024/02/08 07:51:58;;;;;;;7.60;5.50;;;;;;;11.08;64.55;96624.53;1223166;75;2928241;-61
2024/02/08 07:54:39;;;;;;;6.75;5.25;;;;;;;10.54;66.35;96630.44;1223963;75;2935588;-64
2024/02/08 07:57:14;;;;;;;6.60;4.10;;;;;;;9.88;67.06;96627.19;1224171;75;2920218;-60
2024/02/08 07:59:48;;;;;;;9.45;5.75;;;;;;;9.12;69.92;96622.56;1224594;75;2920736;-64
2024/02/08 08:02:23;;;;;;;8.15;5.60;;;;;;;8.99;71.22;96619.53;1223640;75;2924455;-63
2024/02/08 08:04:56;;;;;;;7.35;4.80;;;;;;;8.97;71.55;96609.09;1224770;75;2924834;-63
2024/02/08 08:07:29;;;;;;;9.90;6.30;;;;;;;9.06;72.46;96613.59;1222636;75;2921256;-64
2024/02/08 08:10:08;;;;;;;8.30;5.50;;;;;;;8.95;73.57;96606.88;1205290;75;4250260;-65
2024/02/08 08:12:46;;;;;;;8.00;5.45;;;;;;;8.83;74.61;96613.50;1214273;75;3637154;-68
2024/02/08 08:15:17;;;;;;;7.10;5.00;;;;;;;9.02;75.05;96613.06;1176490;75;6085670;-64
2024/02/08 08:17:59;;;;;;;5.90;4.50;;;;;;;9.08;74.85;96613.84;1212261;75;3339792;-64
2024/02/08 08:23:25;;;;;;;6.35;3.90;;;;;;;9.00;76.09;96610.84;1223313;75;2924505;-62
2024/02/08 08:26:23;;;;;;;4.70;3.05;;;;;;;8.99;77.35;96614.81;1224454;75;2932488;-65
2024/02/08 08:29:02;;;;;;;5.20;3.30;;;;;;;9.03;76.85;96618.06;1224491;75;2926918;-65
2024/02/08 08:31:37;;;;;;;5.45;3.60;;;;;;;8.99;76.95;96619.53;1224086;75;2922739;-64
2024/02/08 08:37:38;;;;;;;12.65;9.15;;;;;;;7.69;85.46;96630.28;1223858;75;2925316;-66
2024/02/08 08:42:49;;;;;;;12.85;8.40;;;;;;;7.75;85.14;96632.31;1223685;75;2934120;-64
2024/02/08 08:45:26;;;;;;;15.20;9.05;;;;;;;7.76;85.36;96631.09;1222062;75;2937814;-65
2024/02/08 08:48:00;;;;;;;16.00;9.35;;;;;;;7.75;85.43;96635.06;1224093;75;2935760;-64
2024/02/08 08:50:33;;;;;;;17.70;10.20;;;;;;;7.81;85.54;96642.03;1224034;75;2928986;-63
2024/02/08 08:53:16;;;;;;;13.40;8.30;;;;;;;8.46;81.87;96647.03;1223682;75;2920898;-64
2024/02/08 08:55:51;;;;;;;13.25;8.10;;;;;;;8.93;78.07;96639.34;1222531;75;2927241;-65
2024/02/08 08:58:27;;;;;;;10.35;7.00;;;;;;;9.02;78.22;96643.09;1223446;75;2930030;-64
2024/02/08 09:01:11;;;;;;;10.30;6.90;;;;;;;9.81;75.97;96647.56;1221681;75;2926550;-63
2024/02/08 09:03:44;;;;;;;15.10;7.10;;;;;;;10.45;72.77;96636.16;1224044;75;2919827;-64
2024/02/08 09:06:17;;;;;;;10.10;6.20;;;;;;;10.84;69.58;96643.53;1223480;75;2924293;-64
2024/02/08 09:08:55;;;;;;;9.05;6.00;;;;;;;11.39;67.72;96652.06;1222756;75;2932764;-63
2024/02/08 09:11:28;;;;;;;7.95;5.15;;;;;;;12.17;63.64;96636.38;1221997;75;2931629;-63
2024/02/08 09:14:10;;;;;;;13.45;6.70;;;;;;;12.18;64.12;96643.38;1223087;75;2927757;-60
2024/02/08 09:16:52;;;;;;;9.40;5.50;;;;;;;12.28;62.27;96641.78;1223297;75;2928621;-64
2024/02/08 09:19:27;;;;;;;11.00;6.85;;;;;;;12.54;61.37;96631.06;1222742;75;2922755;-61
2024/02/08 09:22:02;;;;;;;14.15;8.10;;;;;;;11.87;62.19;96626.13;1221955;75;2923576;-63
2024/02/08 09:24:38;;;;;;;11.00;7.20;;;;;;;12.55;61.04;96635.31;1223524;75;2924776;-60
2024/02/08 09:27:19;;;;;;;14.00;7.70;;;;;;;12.89;58.01;96636.94;1222842;75;2932796;-64
2024/02/08 09:29:56;;;;;;;11.10;7.60;;;;;;;13.36;57.50;96626.44;1222994;75;2924790;-63
2024/02/08 09:35:17;;;;;;;16.40;10.55;;;;;;;12.93;55.74;96615.44;1222403;75;2924169;-63
2024/02/08 09:37:52;;;;;;;15.25;10.10;;;;;;;13.99;54.82;96624.28;1222628;75;2935371;-64
2024/02/08 09:40:42;;;;;;;19.25;11.50;;;;;;;13.68;54.60;96620.25;1222839;75;2928573;-61
2024/02/08 09:43:24;;;;;;;20.00;11.95;;;;;;;14.26;53.77;96605.09;1221980;75;2928161;-63
2024/02/08 09:46:10;;;;;;;17.20;10.25;;;;;;;15.11;52.17;96609.84;1221208;75;2923093;-61
2024/02/08 09:48:51;;;;;;;19.10;11.90;;;;;;;14.91;51.60;96597.44;1222691;75;2933562;-62
2024/02/08 09:51:26;;;;;;;20.35;13.10;;;;;;;14.75;51.58;96595.78;1222156;75;2914588;-66
2024/02/08 09:54:15;;;;;;;15.85;11.05;;;;;;;15.38;51.86;96587.75;1223591;75;2924554;-66
2024/02/08 09:56:54;;;;;;;17.80;11.90;;;;;;;15.11;52.13;96604.34;1223596;75;2922217;-61
2024/02/08 10:02:24;;;;;;;20.10;13.80;;;;;;;14.36;51.67;96599.94;1223876;75;2929760;-62
2024/02/08 10:05:18;;;;;;;19.80;13.25;;;;;;;16.06;49.50;96593.22;1224714;75;2920485;-62
2024/02/08 10:08:09;;;;;;;16.65;11.90;;;;;;;16.26;49.44;96608.31;1224139;75;2920604;-62
2024/02/08 10:10:44;;;;;;;15.75;10.70;;;;;;;17.20;46.56;96592.53;1224230;75;2918115;-60
2024/02/08 10:13:26;;;;;;;15.65;10.75;;;;;;;18.28;46.01;96587.97;1224722;75;2928674;-63
2024/02/08 10:16:09;;;;;;;18.75;11.10;;;;;;;17.53;46.07;96589.31;1223304;75;2920592;-66
2024/02/08 10:18:39;;;;;;;20.95;11.45;;;;;;;17.68;45.89;96578.28;1224097;75;2918423;-63
2024/02/08 10:21:17;;;;;;;14.15;10.35;;;;;;;17.79;45.72;96582.72;1223146;75;2918797;-64
2024/02/08 10:23:59;;;;;;;;;;;;;;;17.61;44.49;96567.94;1224752;75;2922656;-62
2024/02/08 10:26:45;;;;;;;15.70;10.65;;;;;;;17.56;44.42;96577.16;1223248;75;2926000;-62
2024/02/08 10:29:24;;;;;;;18.05;12.20;;;;;;;17.50;44.70;96582.84;1223424;75;2920237;-62
2024/02/08 10:31:59;;;;;;;16.05;11.50;;;;;;;16.87;44.87;96574.84;1223009;75;2922735;-65
2024/02/08 10:34:39;;;;;;;18.15;11.45;;;;;;;17.18;43.45;96583.28;1222152;75;2924718;-68
2024/02/08 10:37:46;;;;;;;14.75;9.60;;;;;;;16.54;44.54;96566.16;1223936;75;2933973;-65
2024/02/08 10:40:28;;;;;;;15.25;10.05;;;;;;;16.07;45.15;96572.63;1223622;75;2926426;-60
2024/02/08 10:43:02;;;;;;;13.40;9.95;;;;;;;16.82;44.30;96568.19;1223204;75;2932398;-63
2024/02/08 10:45:43;;;;;;;12.25;8.70;;;;;;;16.50;44.63;96556.72;1224689;75;2915933;-62
2024/02/08 10:48:17;;;;;;;13.95;9.15;;;;;;;16.78;44.47;96553.97;1225736;75;2920665;-64
2024/02/08 10:50:52;;;;;;;14.70;9.75;;;;;;;16.32;44.96;96561.94;1223321;75;2923166;-66
2024/02/08 10:56:18;;;;;;;14.80;9.70;;;;;;;15.53;46.38;96558.28;1224212;75;2925175;-65
2024/02/08 10:58:55;;;;;;;13.60;9.45;;;;;;;16.42;45.47;96559.44;1221465;75;2942726;-65
2024/02/08 11:01:37;;;;;;;14.15;9.65;;;;;;;15.86;45.78;96560.84;1223970;75;2923145;-66
2024/02/08 11:04:17;;;;;;;13.80;9.50;;;;;;;15.68;46.35;96554.97;1223070;75;2925041;-64
2024/02/08 11:07:06;;;;;;;15.40;10.65;;;;;;;15.50;47.17;96547.59;1223742;75;2926396;-63
2024/02/08 11:09:44;;;;;;;17.90;10.60;;;;;;;16.39;46.38;96549.47;1223058;75;2943123;-62
2024/02/08 11:12:27;;;;;;;17.00;12.20;;;;;;;16.54;45.30;96538.53;1224675;75;2925261;-63
2024/02/08 11:15:13;;;;;;;19.65;11.50;;;;;;;16.46;45.07;96540.50;1223439;75;2923285;-63
2024/02/08 11:17:52;;;;;;;17.55;11.15;;;;;;;17.42;43.50;96529.53;1223162;75;2927008;-63
2024/02/08 11:20:33;;;;;;;15.70;10.75;;;;;;;17.99;42.84;96518.19;1224778;75;2924613;-63
2024/02/08 11:23:23;;;;;;;15.85;11.70;;;;;;;18.05;43.12;96521.50;1223668;75;2932950;-60
2024/02/08 11:26:12;;;;;;;16.50;11.05;;;;;;;18.67;42.05;96522.16;1224750;75;2922844;-63
2024/02/08 11:28:47;;;;;;;16.80;11.75;;;;;;;17.34;44.06;96520.44;1225411;75;2925792;-61
2024/02/08 11:31:32;;;;;;;18.20;11.80;;;;;;;17.40;44.71;96513.47;1222101;75;2925883;-64
2024/02/08 11:34:24;;;;;;;17.90;12.05;;;;;;;17.38;44.47;96521.56;1224127;75;2924641;-66
2024/02/08 11:36:58;;;;;;;18.95;13.60;;;;;;;17.68;44.82;96523.66;1223797;75;2925289;-63
2024/02/08 11:39:31;;;;;;;18.60;12.50;;;;;;;17.84;44.23;96507.09;1223177;75;2925198;-62
2024/02/08 11:42:19;;;;;;;18.70;11.70;;;;;;;19.33;42.05;96497.31;1224146;75;2922329;-64
2024/02/08 11:45:00;;;;;;;15.50;10.30;;;;;;;18.81;42.54;96494.22;1222545;75;2929218;-67
2024/02/08 11:47:41;;;;;;;17.40;11.20;;;;;;;19.12;42.61;96495.56;1223043;75;2925302;-61
2024/02/08 11:50:24;;;;;;;18.80;11.40;;;;;;;18.50;42.68;96489.47;1223419;75;2926862;-65
2024/02/08 11:53:04;;;;;;;16.35;11.45;;;;;;;18.72;41.38;96493.47;1223934;75;2923034;-67
2024/02/08 11:55:38;;;;;;;14.10;10.45;;;;;;;18.06;42.78;96492.53;1223617;75;2924896;-67
2024/02/08 11:58:14;;;;;;;13.65;8.85;;;;;;;19.81;40.97;96483.31;1223057;75;2924847;-65
2024/02/08 12:00:48;;;;;;;14.85;10.45;;;;;;;19.28;41.22;96474.00;1224684;75;2922103;-62
2024/02/08 12:03:22;;;;;;;10.95;7.90;;;;;;;21.04;38.98;96473.72;1223303;75;2925817;-64
2024/02/08 12:05:58;;;;;;;13.20;9.45;;;;;;;20.68;39.22;96474.34;1224558;75;2920595;-62
2024/02/08 12:08:31;;;;;;;16.15;10.95;;;;;;;19.03;41.19;96487.13;1223802;75;2929646;-68
2024/02/08 12:11:04;;;;;;;17.60;10.50;;;;;;;19.24;41.31;96476.47;1224214;75;2926414;-65
2024/02/08 12:13:45;;;;;;;15.40;10.70;;;;;;;19.01;41.34;96475.84;1223221;75;2922174;-66
2024/02/08 12:16:19;;;;;;;14.40;10.65;;;;;;;19.13;41.85;96472.06;1223684;75;2939334;-63
2024/02/08 12:19:05;;;;;;;15.40;10.80;;;;;;;18.76;41.65;96472.94;1223872;75;2930875;-65
2024/02/08 12:21:42;;;;;;;15.35;10.40;;;;;;;19.15;41.61;96458.38;1223149;75;2922599;-64
2024/02/08 12:24:18;;;;;;;15.60;10.65;;;;;;;19.06;42.20;96456.19;1223963;75;2924702;-68
2024/02/08 12:26:53;;;;;;;14.40;10.00;;;;;;;19.58;41.65;96456.44;1223689;75;2924442;-64
2024/02/08 12:29:30;;;;;;;11.30;8.50;;;;;;;20.94;39.56;96461.81;1224223;75;2920916;-64
2024/02/08 12:32:05;;;;;;;13.00;8.45;;;;;;;20.56;40.49;96460.22;1223083;75;2924218;-66
2024/02/08 12:34:38;;;;;;;14.50;10.75;;;;;;;19.64;41.41;96461.75;1224001;75;2925886;-61
2024/02/08 12:37:12;;;;;;;14.55;10.50;;;;;;;19.19;41.87;96460.00;1223484;75;2928002;-64
2024/02/08 12:39:49;;;;;;;15.45;11.15;;;;;;;19.12;42.81;96459.50;1224470;75;2921520;-64
2024/02/08 12:42:23;;;;;;;15.10;10.95;;;;;;;19.15;42.53;96461.16;1223057;75;2925426;-64
2024/02/08 12:44:59;;;;;;;16.80;10.80;;;;;;;18.92;42.56;96450.16;1224092;75;2918770;-64
2024/02/08 12:47:32;;;;;;;17.10;11.55;;;;;;;18.84;43.43;96448.75;1222666;75;2915690;-63
2024/02/08 12:50:08;;;;;;;14.40;10.10;;;;;;;19.34;42.16;96438.47;1224284;75;2922989;-62
2024/02/08 12:52:41;;;;;;;16.15;10.95;;;;;;;17.97;43.74;96431.44;1222608;75;2913284;-64
2024/02/08 12:55:22;;;;;;;17.20;11.85;;;;;;;18.97;43.01;96428.34;1222791;75;2933242;-65
2024/02/08 12:58:04;;;;;;;14.15;10.40;;;;;;;19.36;41.95;96418.47;1223181;75;2929020;-65
2024/02/08 13:00:39;;;;;;;15.20;10.75;;;;;;;18.69;42.46;96419.03;1224418;75;2923715;-63
2024/02/08 13:03:12;;;;;;;13.90;10.45;;;;;;;18.61;42.90;96432.16;1222377;75;2935167;-64
2024/02/08 13:05:46;;;;;;;12.85;8.80;;;;;;;19.49;41.44;96415.41;1222820;75;2934062;-66
2024/02/08 13:08:24;;;;;;;13.85;10.05;;;;;;;19.54;40.81;96399.84;1223265;75;2923047;-66
2024/02/08 13:10:58;;;;;;;14.75;11.15;;;;;;;19.14;41.54;96397.91;1224753;75;2925787;-63
2024/02/08 13:13:32;;;;;;;17.10;10.20;;;;;;;19.22;41.42;96395.06;1223869;75;2924394;-65
2024/02/08 13:16:12;;;;;;;14.00;9.60;;;;;;;19.89;40.19;96389.56;1223836;75;2919878;-66
2024/02/08 13:18:55;;;;;;;13.80;9.35;;;;;;;20.42;39.53;96370.84;1224161;75;2921516;-63
2024/02/08 13:21:28;;;;;;;17.05;11.25;;;;;;;19.00;40.88;96375.25;1223659;75;2925024;-64
2024/02/08 13:24:07;;;;;;;14.85;10.15;;;;;;;20.72;38.23;96380.13;1223756;75;2935492;-62
2024/02/08 13:26:40;;;;;;;13.25;9.35;;;;;;;20.13;38.05;96387.28;1223777;75;2925826;-65
2024/02/08 13:29:13;;;;;;;15.10;10.30;;;;;;;20.19;38.64;96385.72;1224304;75;2875548;-64
2024/02/08 13:31:51;;;;;;;14.60;9.95;;;;;;;20.19;38.98;96393.34;1223832;75;2930215;-67
2024/02/08 13:34:23;;;;;;;;;;;;;;;21.38;37.08;96394.97;1224958;75;2924566;-66
2024/02/08 13:36:58;;;;;;;13.60;9.80;;;;;;;21.14;37.97;96404.22;1224804;75;2919540;-65
2024/02/08 13:39:32;;;;;;;15.40;10.85;;;;;;;20.55;38.05;96400.34;1223753;75;2921639;-62
2024/02/08 13:42:05;;;;;;;13.40;8.95;;;;;;;22.55;36.11;96389.59;1223169;75;2925038;-63
2024/02/08 13:44:38;;;;;;;14.95;9.60;;;;;;;22.18;36.17;96392.50;1223730;75;2925613;-65